createdAt,value
2019-05-19T00:01:58.478Z,15.84
2019-05-19T00:04:27.797Z,15.71
2019-05-19T00:06:57.164Z,15.71
2019-05-19T00:09:26.595Z,15.74
2019-05-19T00:11:55.932Z,15.74
2019-05-19T00:16:50.440Z,15.58
2019-05-19T00:19:26.722Z,15.51
2019-05-19T00:21:50.903Z,15.13
2019-05-19T00:24:20.306Z,15.08
2019-05-19T00:26:49.643Z,15.41
2019-05-19T00:29:18.987Z,15.53
2019-05-19T00:31:48.461Z,15.54
2019-05-19T00:34:18.259Z,15.60
2019-05-19T00:36:47.627Z,15.66
2019-05-19T00:39:17.030Z,15.72
2019-05-19T00:41:46.398Z,15.46
2019-05-19T00:44:15.767Z,15.46
2019-05-19T00:46:45.205Z,15.62
2019-05-19T00:49:14.591Z,15.62
2019-05-19T00:51:44.535Z,15.60
2019-05-19T00:54:13.977Z,15.60
2019-05-19T00:56:43.593Z,15.59
2019-05-19T00:59:13.953Z,15.57
2019-05-19T01:01:43.339Z,15.49
2019-05-19T01:04:12.690Z,15.47
2019-05-19T01:06:42.074Z,15.47
2019-05-19T01:09:11.451Z,15.38
2019-05-19T01:11:41.124Z,15.23
2019-05-19T01:14:10.537Z,15.23
2019-05-19T01:16:39.910Z,15.19
2019-05-19T01:19:09.316Z,15.22
2019-05-19T01:21:40.168Z,15.23
2019-05-19T01:24:09.589Z,15.15
2019-05-19T01:26:39.049Z,14.92
2019-05-19T01:29:08.431Z,14.96
2019-05-19T01:31:37.810Z,14.96
2019-05-19T01:34:07.305Z,14.94
2019-05-19T01:36:36.671Z,14.84
2019-05-19T01:39:07.031Z,14.84
2019-05-19T01:41:36.409Z,14.82
2019-05-19T01:44:05.911Z,14.79
2019-05-19T01:46:35.263Z,14.74
2019-05-19T01:49:04.655Z,14.75
2019-05-19T01:51:33.986Z,14.69
2019-05-19T01:54:03.471Z,14.69
2019-05-19T01:56:32.842Z,14.61
2019-05-19T01:59:02.226Z,14.56
2019-05-19T02:01:31.578Z,14.58
2019-05-19T02:04:01.016Z,14.50
2019-05-19T02:06:30.370Z,14.52
2019-05-19T02:08:59.731Z,14.58
2019-05-19T02:11:29.131Z,14.49
2019-05-19T02:13:58.561Z,14.58
2019-05-19T02:16:27.937Z,14.50
2019-05-19T02:18:57.329Z,14.33
2019-05-19T02:21:26.695Z,14.28
2019-05-19T02:23:56.114Z,14.28
2019-05-19T02:26:25.475Z,14.19
2019-05-19T02:28:54.833Z,14.22
2019-05-19T02:31:24.358Z,14.17
2019-05-19T02:33:53.765Z,14.12
2019-05-19T02:36:23.116Z,13.97
2019-05-19T02:38:52.493Z,13.96
2019-05-19T02:41:24.692Z,14.00
2019-05-19T02:43:54.857Z,13.99
2019-05-19T02:46:25.134Z,14.00
2019-05-19T02:48:55.513Z,13.87
2019-05-19T02:51:27.402Z,13.83
2019-05-19T02:53:57.321Z,13.72
2019-05-19T02:56:28.513Z,13.74
2019-05-19T02:58:58.938Z,13.72
2019-05-19T03:01:28.379Z,13.67
2019-05-19T03:03:57.778Z,13.60
2019-05-19T03:06:27.449Z,13.58
2019-05-19T03:08:56.855Z,13.58
2019-05-19T03:11:26.275Z,13.61
2019-05-19T03:13:55.701Z,13.66
2019-05-19T03:16:25.112Z,13.69
2019-05-19T03:18:54.472Z,13.67
2019-05-19T03:21:23.860Z,13.65
2019-05-19T03:23:53.204Z,13.76
2019-05-19T03:26:22.611Z,13.78
2019-05-19T03:28:52.007Z,13.62
2019-05-19T03:31:37.142Z,13.71
2019-05-19T03:34:06.520Z,13.74
2019-05-19T03:36:35.939Z,13.74
2019-05-19T03:39:06.853Z,13.79
2019-05-19T03:41:36.223Z,13.82
2019-05-19T03:44:05.609Z,13.55
2019-05-19T03:46:35.047Z,13.72
2019-05-19T03:49:04.428Z,13.71
2019-05-19T03:51:33.806Z,13.86
2019-05-19T03:54:03.252Z,13.91
2019-05-19T03:56:32.697Z,14.02
2019-05-19T03:59:02.033Z,14.10
2019-05-19T04:01:31.474Z,14.14
2019-05-19T04:04:00.876Z,13.97
2019-05-19T04:06:30.353Z,14.26
2019-05-19T04:08:59.740Z,14.12
2019-05-19T04:11:29.085Z,14.38
2019-05-19T04:13:58.488Z,14.45
2019-05-19T04:16:27.949Z,14.50
2019-05-19T04:18:57.301Z,14.48
2019-05-19T04:21:26.676Z,14.66
2019-05-19T04:23:56.075Z,14.50
2019-05-19T04:26:25.500Z,14.70
2019-05-19T04:28:54.865Z,14.89
2019-05-19T04:31:24.225Z,14.91
2019-05-19T04:33:53.647Z,15.06
2019-05-19T04:36:23.089Z,15.24
2019-05-19T04:38:52.506Z,15.52
2019-05-19T04:41:21.851Z,15.61
2019-05-19T04:43:51.238Z,15.61
2019-05-19T04:46:20.704Z,15.57
2019-05-19T04:48:50.051Z,15.64
2019-05-19T04:51:19.391Z,15.62
2019-05-19T04:53:48.772Z,15.74
2019-05-19T04:56:19.868Z,15.84
2019-05-19T04:58:49.429Z,16.00
2019-05-19T05:01:18.768Z,16.13
2019-05-19T05:03:48.164Z,16.24
2019-05-19T05:06:17.524Z,16.33
2019-05-19T05:08:47.046Z,16.49
2019-05-19T05:11:16.536Z,16.55
2019-05-19T05:13:45.980Z,16.72
2019-05-19T05:16:15.377Z,16.96
2019-05-19T05:18:47.721Z,17.18
2019-05-19T05:21:15.874Z,17.31
2019-05-19T05:23:45.276Z,17.38
2019-05-19T05:26:14.709Z,17.48
2019-05-19T05:28:44.097Z,17.52
2019-05-19T05:31:15.533Z,17.57
2019-05-19T05:33:44.547Z,17.59
2019-05-19T05:36:13.902Z,17.47
2019-05-19T05:38:43.363Z,17.57
2019-05-19T05:41:17.968Z,17.64
2019-05-19T05:43:47.351Z,17.66
2019-05-19T05:46:16.748Z,17.73
2019-05-19T05:48:46.098Z,17.78
2019-05-19T05:51:15.456Z,17.85
2019-05-19T05:53:44.805Z,17.78
2019-05-19T05:56:14.158Z,17.90
2019-05-19T05:58:43.511Z,18.05
2019-05-19T06:01:12.871Z,18.14
2019-05-19T06:03:42.241Z,18.15
2019-05-19T06:06:11.707Z,18.24
2019-05-19T06:08:41.176Z,18.23
2019-05-19T06:11:10.597Z,18.32
2019-05-19T06:13:40.007Z,18.37
2019-05-19T06:16:09.583Z,18.48
2019-05-19T06:18:38.924Z,18.48
2019-05-19T06:21:08.360Z,18.47
2019-05-19T06:23:37.689Z,18.46
2019-05-19T06:26:07.098Z,18.55
2019-05-19T06:28:36.480Z,18.54
2019-05-19T06:31:05.814Z,18.66
2019-05-19T06:33:35.151Z,18.82
2019-05-19T06:36:04.512Z,18.94
2019-05-19T06:38:33.899Z,18.93
2019-05-19T06:41:03.271Z,19.09
2019-05-19T06:43:32.563Z,19.09
2019-05-19T06:46:01.875Z,19.16
2019-05-19T06:48:31.238Z,19.18
2019-05-19T06:51:00.576Z,19.29
2019-05-19T06:53:29.936Z,19.42
2019-05-19T06:55:59.299Z,19.59
2019-05-19T06:58:28.964Z,19.60
2019-05-19T07:00:59.258Z,19.76
2019-05-19T07:03:28.736Z,19.82
2019-05-19T07:05:58.120Z,19.98
2019-05-19T07:08:27.537Z,20.11
2019-05-19T07:10:56.866Z,20.27
2019-05-19T07:13:26.226Z,20.40
2019-05-19T07:15:55.727Z,20.64
2019-05-19T07:18:25.147Z,20.74
2019-05-19T07:20:54.511Z,20.86
2019-05-19T07:23:28.431Z,20.74
2019-05-19T07:25:54.994Z,20.66
2019-05-19T07:28:24.398Z,20.54
2019-05-19T07:30:53.753Z,20.60
2019-05-19T07:33:23.083Z,20.79
2019-05-19T07:35:52.438Z,21.04
2019-05-19T07:38:21.877Z,21.11
2019-05-19T07:40:53.418Z,21.27
2019-05-19T07:43:22.783Z,21.46
2019-05-19T07:45:52.225Z,21.64
2019-05-19T07:48:21.577Z,21.76
2019-05-19T07:50:50.969Z,21.84
2019-05-19T07:53:20.338Z,21.87
2019-05-19T07:55:49.701Z,21.97
2019-05-19T07:58:19.076Z,21.97
2019-05-19T08:00:48.486Z,22.14
2019-05-19T08:03:17.860Z,22.09
2019-05-19T08:05:47.209Z,22.38
2019-05-19T08:08:16.621Z,22.68
2019-05-19T08:10:46.282Z,22.66
2019-05-19T08:13:15.619Z,22.99
2019-05-19T08:15:46.366Z,23.09
2019-05-19T08:18:15.771Z,23.38
2019-05-19T08:20:45.016Z,23.26
2019-05-19T08:23:14.429Z,23.31
2019-05-19T08:25:43.807Z,23.36
2019-05-19T08:28:13.201Z,23.59
2019-05-19T08:30:42.578Z,23.61
2019-05-19T08:33:11.948Z,23.75
2019-05-19T08:35:41.649Z,23.85
2019-05-19T08:38:11.025Z,23.84
2019-05-19T08:40:40.453Z,24.06
2019-05-19T08:43:09.820Z,24.09
2019-05-19T08:45:39.208Z,23.85
2019-05-19T08:48:08.596Z,23.90
2019-05-19T08:50:37.959Z,23.90
2019-05-19T08:53:07.315Z,24.07
2019-05-19T08:55:36.746Z,24.00
2019-05-19T08:58:06.253Z,24.01
2019-05-19T09:00:38.428Z,24.26
2019-05-19T09:03:06.969Z,24.31
2019-05-19T09:05:36.387Z,24.52
2019-05-19T09:08:05.828Z,24.72
2019-05-19T09:10:35.190Z,24.88
2019-05-19T09:13:04.564Z,25.01
2019-05-19T09:15:33.959Z,24.94
2019-05-19T09:18:03.333Z,24.95
2019-05-19T09:20:32.660Z,25.17
2019-05-19T09:23:02.020Z,25.20
2019-05-19T09:25:31.384Z,25.42
2019-05-19T09:28:00.729Z,25.62
2019-05-19T09:30:30.214Z,25.64
2019-05-19T09:32:59.590Z,25.81
2019-05-19T09:35:28.936Z,25.97
2019-05-19T09:37:58.530Z,25.67
2019-05-19T09:40:27.894Z,25.81
2019-05-19T09:42:57.229Z,25.92
2019-05-19T09:45:26.609Z,26.16
2019-05-19T09:47:55.960Z,26.35
2019-05-19T09:50:25.338Z,26.55
2019-05-19T09:52:54.679Z,26.67
2019-05-19T09:55:24.030Z,26.81
2019-05-19T09:57:53.377Z,26.89
2019-05-19T10:00:22.932Z,27.23
2019-05-19T10:02:52.375Z,27.11
2019-05-19T10:05:21.710Z,27.00
2019-05-19T10:07:51.057Z,26.97
2019-05-19T10:10:37.336Z,26.84
2019-05-19T10:13:06.646Z,26.90
2019-05-19T10:15:36.025Z,27.17
2019-05-19T10:18:05.402Z,27.39
2019-05-19T10:20:34.748Z,27.32
2019-05-19T10:23:04.206Z,27.53
2019-05-19T10:25:33.572Z,27.69
2019-05-19T10:28:02.923Z,27.60
2019-05-19T10:30:32.279Z,27.63
2019-05-19T10:33:01.645Z,27.60
2019-05-19T10:35:31.012Z,27.83
2019-05-19T10:38:00.386Z,27.65
2019-05-19T10:40:29.755Z,27.88
2019-05-19T10:42:59.120Z,28.03
2019-05-19T10:45:28.516Z,27.99
2019-05-19T10:47:57.866Z,27.85
2019-05-19T10:50:27.208Z,28.24
2019-05-19T10:52:56.895Z,27.99
2019-05-19T10:55:36.149Z,27.91
2019-05-19T10:57:57.355Z,28.22
2019-05-19T11:00:26.756Z,28.09
2019-05-19T11:02:56.119Z,27.95
2019-05-19T11:05:25.530Z,27.63
2019-05-19T11:07:54.895Z,27.87
2019-05-19T11:10:24.298Z,27.90
2019-05-19T11:12:53.658Z,28.12
2019-05-19T11:15:23.325Z,28.36
2019-05-19T11:17:52.684Z,28.55
2019-05-19T11:20:22.091Z,28.92
2019-05-19T11:22:51.495Z,29.23
2019-05-19T11:25:32.979Z,29.37
2019-05-19T11:27:51.995Z,29.72
2019-05-19T11:30:21.376Z,30.08
2019-05-19T11:32:50.787Z,30.54
2019-05-19T11:35:20.101Z,30.77
2019-05-19T11:37:49.468Z,30.86
2019-05-19T11:40:18.876Z,30.55
2019-05-19T11:42:48.235Z,30.54
2019-05-19T11:45:17.810Z,30.16
2019-05-19T11:47:47.208Z,29.90
2019-05-19T11:50:16.626Z,29.55
2019-05-19T11:52:46.014Z,29.20
2019-05-19T11:55:15.430Z,28.93
2019-05-19T11:57:44.820Z,28.47
2019-05-19T12:00:14.601Z,28.85
2019-05-19T12:02:43.975Z,28.72
2019-05-19T12:05:14.057Z,28.45
2019-05-19T12:07:43.419Z,28.23
2019-05-19T12:10:13.161Z,28.28
2019-05-19T12:12:42.572Z,27.93
2019-05-19T12:15:12.327Z,27.94
2019-05-19T12:17:41.692Z,27.64
2019-05-19T12:20:11.797Z,27.34
2019-05-19T12:22:41.153Z,27.25
2019-05-19T12:25:10.532Z,27.08
2019-05-19T12:27:39.941Z,26.85
2019-05-19T12:30:09.850Z,26.63
2019-05-19T12:32:39.208Z,26.48
2019-05-19T12:35:08.911Z,26.34
2019-05-19T12:37:38.276Z,26.23
2019-05-19T12:40:07.747Z,26.31
2019-05-19T12:42:37.128Z,26.08
2019-05-19T12:45:06.585Z,26.14
2019-05-19T12:47:36.359Z,26.12
2019-05-19T12:50:06.468Z,26.21
2019-05-19T12:52:35.804Z,26.53
2019-05-19T12:55:05.809Z,26.70
2019-05-19T12:57:35.344Z,26.68
2019-05-19T13:00:05.206Z,26.59
2019-05-19T13:02:37.851Z,26.38
2019-05-19T13:05:06.420Z,26.42
2019-05-19T13:07:35.901Z,26.36
2019-05-19T13:10:06.145Z,26.03
2019-05-19T13:12:35.506Z,26.08
2019-05-19T13:15:05.508Z,26.02
2019-05-19T13:17:34.902Z,25.85
2019-05-19T13:20:04.658Z,25.60
2019-05-19T13:22:34.117Z,25.54
2019-05-19T13:25:03.512Z,25.36
2019-05-19T13:27:32.927Z,25.35
2019-05-19T13:30:02.354Z,25.50
2019-05-19T13:32:31.773Z,25.24
2019-05-19T13:35:01.125Z,25.26
2019-05-19T13:37:30.553Z,25.28
2019-05-19T13:39:59.939Z,25.55
2019-05-19T13:42:29.336Z,25.86
2019-05-19T13:44:58.898Z,26.16
2019-05-19T13:47:28.273Z,26.18
2019-05-19T13:49:57.753Z,26.10
2019-05-19T13:52:27.160Z,26.15
2019-05-19T13:54:57.204Z,26.42
2019-05-19T13:57:28.959Z,26.46
2019-05-19T13:59:58.594Z,26.72
2019-05-19T14:02:27.938Z,26.61
2019-05-19T14:04:57.315Z,27.44
2019-05-19T14:07:26.708Z,27.77
2019-05-19T14:09:56.093Z,28.07
2019-05-19T14:12:25.490Z,28.46
2019-05-19T14:14:54.821Z,29.00
2019-05-19T14:17:24.290Z,29.18
2019-05-19T14:19:53.702Z,29.23
2019-05-19T14:22:23.116Z,28.66
2019-05-19T14:24:52.565Z,27.77
2019-05-19T14:27:30.385Z,27.43
2019-05-19T14:29:53.116Z,27.12
2019-05-19T14:32:22.556Z,26.70
2019-05-19T14:34:51.922Z,26.56
2019-05-19T14:37:21.325Z,26.11
2019-05-19T14:39:50.695Z,26.04
2019-05-19T14:42:37.596Z,26.04
2019-05-19T14:45:07.631Z,25.98
2019-05-19T14:47:37.006Z,25.79
2019-05-19T14:50:06.467Z,25.80
2019-05-19T14:52:35.915Z,25.88
2019-05-19T14:55:05.306Z,25.75
2019-05-19T14:57:44.327Z,25.82
2019-05-19T15:00:06.343Z,26.02
2019-05-19T15:02:36.362Z,26.51
2019-05-19T15:05:05.953Z,27.06
2019-05-19T15:07:35.359Z,27.46
2019-05-19T15:10:04.851Z,27.70
2019-05-19T15:12:34.420Z,28.21
2019-05-19T15:15:03.903Z,28.22
2019-05-19T15:17:33.254Z,27.80
2019-05-19T15:20:02.636Z,27.25
2019-05-19T15:22:32.116Z,26.58
2019-05-19T15:25:01.511Z,26.31
2019-05-19T15:27:30.864Z,26.03
2019-05-19T15:30:12.320Z,25.98
2019-05-19T15:32:31.389Z,25.84
2019-05-19T15:35:00.761Z,25.59
2019-05-19T15:37:30.142Z,25.46
2019-05-19T15:39:59.586Z,25.44
2019-05-19T15:42:28.964Z,25.58
2019-05-19T15:44:58.304Z,26.36
2019-05-19T15:47:27.659Z,26.94
2019-05-19T15:49:57.081Z,27.34
2019-05-19T15:52:26.497Z,27.51
2019-05-19T15:54:55.836Z,27.90
2019-05-19T15:57:28.401Z,28.24
2019-05-19T15:59:56.313Z,28.01
2019-05-19T16:02:25.810Z,28.11
2019-05-19T16:04:55.242Z,28.14
2019-05-19T16:07:24.648Z,28.13
2019-05-19T16:09:54.044Z,28.48
2019-05-19T16:12:23.370Z,28.37
2019-05-19T16:14:52.770Z,27.98
2019-05-19T16:17:22.134Z,28.10
2019-05-19T16:19:51.489Z,28.09
2019-05-19T16:22:20.857Z,28.13
2019-05-19T16:24:50.217Z,27.69
2019-05-19T16:27:19.631Z,27.38
2019-05-19T16:29:49.000Z,27.19
2019-05-19T16:32:18.356Z,27.00
2019-05-19T16:34:47.728Z,26.95
2019-05-19T16:37:17.171Z,26.82
2019-05-19T16:39:46.563Z,26.49
2019-05-19T16:42:15.902Z,26.14
2019-05-19T16:44:45.302Z,25.98
2019-05-19T16:47:14.686Z,25.77
2019-05-19T16:49:44.068Z,25.66
2019-05-19T16:52:13.494Z,25.52
2019-05-19T16:54:45.396Z,25.30
2019-05-19T16:57:14.785Z,25.10
2019-05-19T16:59:44.171Z,25.03
2019-05-19T17:02:13.511Z,24.91
2019-05-19T17:04:43.002Z,24.72
2019-05-19T17:07:12.352Z,24.62
2019-05-19T17:09:41.686Z,24.57
2019-05-19T17:12:11.053Z,24.38
2019-05-19T17:14:40.486Z,24.40
2019-05-19T17:17:09.849Z,24.36
2019-05-19T17:19:39.227Z,24.31
2019-05-19T17:22:08.573Z,24.23
2019-05-19T17:24:37.973Z,24.21
2019-05-19T17:27:07.497Z,24.21
2019-05-19T17:29:36.829Z,24.24
2019-05-19T17:32:06.486Z,24.18
2019-05-19T17:34:35.973Z,23.98
2019-05-19T17:37:05.351Z,23.99
2019-05-19T17:39:34.721Z,23.94
2019-05-19T17:42:04.116Z,23.86
2019-05-19T17:44:33.664Z,23.69
2019-05-19T17:47:03.061Z,23.51
2019-05-19T17:49:32.390Z,23.47
2019-05-19T17:52:01.777Z,23.32
2019-05-19T17:54:31.874Z,23.31
2019-05-19T17:57:01.632Z,23.13
2019-05-19T17:59:31.774Z,23.10
2019-05-19T18:02:01.221Z,23.15
2019-05-19T18:04:30.598Z,23.03
2019-05-19T18:06:59.932Z,22.93
2019-05-19T18:09:29.269Z,22.76
2019-05-19T18:11:58.668Z,22.59
2019-05-19T18:14:28.025Z,22.48
2019-05-19T18:16:57.407Z,22.42
2019-05-19T18:19:26.763Z,22.32
2019-05-19T18:21:56.139Z,22.19
2019-05-19T18:24:25.484Z,22.06
2019-05-19T18:26:55.872Z,22.03
2019-05-19T18:29:31.284Z,21.96
2019-05-19T18:31:56.366Z,21.88
2019-05-19T18:34:25.853Z,21.78
2019-05-19T18:36:55.624Z,21.58
2019-05-19T18:39:25.030Z,21.48
2019-05-19T18:41:54.342Z,21.47
2019-05-19T18:44:23.701Z,21.39
2019-05-19T18:46:53.438Z,21.32
2019-05-19T18:49:22.841Z,21.34
2019-05-19T18:51:52.275Z,21.12
2019-05-19T18:54:21.700Z,21.00
2019-05-19T18:56:51.308Z,21.09
2019-05-19T18:59:20.591Z,20.97
2019-05-19T19:01:50.367Z,20.96
2019-05-19T19:04:20.873Z,20.85
2019-05-19T19:06:50.788Z,20.83
2019-05-19T19:09:23.765Z,20.81
2019-05-19T19:11:53.686Z,20.81
2019-05-19T19:14:23.075Z,20.81
2019-05-19T19:16:54.730Z,20.82
2019-05-19T19:19:24.093Z,20.80
2019-05-19T19:21:53.436Z,20.83
2019-05-19T19:24:23.277Z,20.71
2019-05-19T19:26:52.703Z,20.69
2019-05-19T19:29:22.088Z,20.66
2019-05-19T19:31:51.438Z,20.55
2019-05-19T19:34:20.811Z,19.97
2019-05-19T19:36:50.155Z,19.83
2019-05-19T19:39:19.534Z,19.98
2019-05-19T19:41:48.877Z,19.52
2019-05-19T19:44:18.262Z,19.17
2019-05-19T19:46:48.599Z,19.53
2019-05-19T19:49:18.248Z,19.73
2019-05-19T19:51:47.601Z,19.57
2019-05-19T19:54:18.573Z,19.08
2019-05-19T19:56:47.998Z,19.10
2019-05-19T19:59:17.358Z,19.21
2019-05-19T20:01:46.810Z,19.25
2019-05-19T20:04:16.196Z,19.32
2019-05-19T20:06:45.601Z,19.38
2019-05-19T20:09:15.138Z,19.26
2019-05-19T20:11:44.508Z,19.14
2019-05-19T20:14:13.882Z,19.08
2019-05-19T20:16:43.288Z,18.94
2019-05-19T20:19:12.646Z,18.81
2019-05-19T20:21:41.961Z,18.26
2019-05-19T20:24:11.322Z,18.32
2019-05-19T20:26:40.827Z,18.49
2019-05-19T20:29:10.192Z,18.50
2019-05-19T20:31:39.651Z,18.20
2019-05-19T20:34:09.122Z,18.37
2019-05-19T20:36:38.580Z,18.37
2019-05-19T20:39:07.968Z,18.35
2019-05-19T20:41:37.379Z,18.32
2019-05-19T20:44:06.763Z,18.42
2019-05-19T20:46:36.237Z,18.48
2019-05-19T20:49:05.710Z,18.02
2019-05-19T20:51:35.079Z,17.85
2019-05-19T20:54:04.638Z,17.93
2019-05-19T20:56:34.038Z,17.95
2019-05-19T20:59:03.539Z,18.12
2019-05-19T21:01:32.899Z,18.19
2019-05-19T21:04:02.280Z,18.16
2019-05-19T21:06:31.713Z,17.75
2019-05-19T21:09:01.097Z,17.69
2019-05-19T21:11:30.434Z,17.88
2019-05-19T21:13:59.913Z,17.92
2019-05-19T21:16:29.309Z,17.88
2019-05-19T21:18:58.758Z,17.80
2019-05-19T21:21:28.105Z,17.76
2019-05-19T21:23:57.540Z,17.86
2019-05-19T21:26:26.938Z,17.98
2019-05-19T21:28:56.292Z,17.99
2019-05-19T21:31:25.645Z,17.31
2019-05-19T21:33:55.062Z,17.26
2019-05-19T21:36:24.557Z,17.48
2019-05-19T21:38:53.949Z,17.60
2019-05-19T21:41:23.342Z,17.46
2019-05-19T21:43:52.698Z,17.25
2019-05-19T21:46:22.079Z,17.46
2019-05-19T21:48:51.457Z,17.31
2019-05-19T21:51:20.860Z,17.45
2019-05-19T21:53:50.227Z,17.42
2019-05-19T21:56:19.640Z,17.04
2019-05-19T21:58:49.065Z,17.26
2019-05-19T22:01:23.119Z,17.32
2019-05-19T22:03:49.711Z,17.36
2019-05-19T22:06:20.893Z,17.24
2019-05-19T22:08:50.284Z,17.39
2019-05-19T22:11:19.656Z,17.07
2019-05-19T22:13:49.027Z,17.24
2019-05-19T22:16:18.397Z,17.36
2019-05-19T22:18:47.801Z,17.41
2019-05-19T22:21:17.248Z,17.26
2019-05-19T22:23:46.631Z,17.16
2019-05-19T22:26:16.033Z,17.38
2019-05-19T22:28:45.397Z,17.38
2019-05-19T22:31:14.762Z,17.35
2019-05-19T22:33:44.200Z,17.22
2019-05-19T22:36:13.630Z,17.28
2019-05-19T22:38:43.018Z,17.08
2019-05-19T22:41:12.379Z,17.06
2019-05-19T22:43:41.761Z,17.07
2019-05-19T22:46:11.157Z,17.15
2019-05-19T22:48:40.532Z,17.13
2019-05-19T22:51:10.023Z,16.98
2019-05-19T22:53:39.492Z,17.10
2019-05-19T22:56:08.917Z,17.02
2019-05-19T22:58:41.411Z,16.94
2019-05-19T23:01:09.418Z,16.91
2019-05-19T23:03:39.193Z,16.90
2019-05-19T23:06:08.605Z,16.83
2019-05-19T23:08:38.025Z,16.78
2019-05-19T23:11:07.386Z,16.82
2019-05-19T23:13:36.775Z,16.80
2019-05-19T23:16:06.187Z,16.80
2019-05-19T23:18:35.524Z,16.78
2019-05-19T23:21:04.896Z,16.71
2019-05-19T23:23:34.235Z,16.66
2019-05-19T23:26:03.629Z,16.71
2019-05-19T23:28:32.994Z,16.64
2019-05-19T23:31:02.361Z,16.20
2019-05-19T23:33:31.733Z,16.46
2019-05-19T23:36:01.740Z,16.47
2019-05-19T23:38:31.125Z,16.43
2019-05-19T23:41:00.578Z,15.84
2019-05-19T23:43:29.956Z,15.91
2019-05-19T23:45:59.353Z,16.09
2019-05-19T23:48:28.704Z,16.21
2019-05-19T23:50:58.114Z,16.17
2019-05-19T23:53:27.461Z,16.18
2019-05-19T23:55:56.853Z,16.27
2019-05-19T23:58:26.257Z,16.33
